createdAt,value
2023-03-16T00:00:42.900Z,101990.19
2023-03-16T00:03:10.601Z,101992.91
2023-03-16T00:05:37.516Z,101992.28
2023-03-16T00:08:04.394Z,101993.81
2023-03-16T00:10:30.830Z,101988.63
2023-03-16T00:12:57.604Z,101992.09
2023-03-16T00:15:24.301Z,101993.81
2023-03-16T00:17:50.706Z,101998.09
2023-03-16T00:20:18.555Z,101995.50
2023-03-16T00:22:45.065Z,101996.34
2023-03-16T00:25:14.587Z,101996.69
2023-03-16T00:27:41.556Z,102000.72
2023-03-16T00:30:08.906Z,101998.84
2023-03-16T00:32:37.485Z,101993.03
2023-03-16T00:35:07.356Z,101996.53
2023-03-16T00:37:37.628Z,102007.88
2023-03-16T00:40:06.028Z,101995.06
2023-03-16T00:42:34.124Z,101993.03
2023-03-16T00:45:01.703Z,101997.31
2023-03-16T00:47:31.425Z,101996.59
2023-03-16T00:49:59.017Z,101993.75
2023-03-16T00:52:27.470Z,101997.16
2023-03-16T00:54:55.358Z,101997.47
2023-03-16T00:57:25.111Z,101994.16
2023-03-16T00:59:52.720Z,101995.69
2023-03-16T01:02:23.322Z,101992.47
2023-03-16T01:04:50.657Z,101998.63
2023-03-16T01:07:18.743Z,102000.38
2023-03-16T01:09:45.437Z,101986.25
2023-03-16T01:12:14.657Z,101985.00
2023-03-16T01:14:42.148Z,101988.09
2023-03-16T01:17:09.748Z,101981.19
2023-03-16T01:19:37.364Z,101975.53
2023-03-16T01:22:05.820Z,101980.16
2023-03-16T01:24:34.087Z,101974.63
2023-03-16T01:27:00.525Z,101980.94
2023-03-16T01:29:27.340Z,101974.22
2023-03-16T01:31:56.456Z,101979.69
2023-03-16T01:34:23.321Z,101979.91
2023-03-16T01:36:51.053Z,101973.84
2023-03-16T01:39:25.881Z,101974.41
2023-03-16T01:41:52.407Z,101973.19
2023-03-16T01:44:24.457Z,101976.19
2023-03-16T01:46:51.318Z,101978.06
2023-03-16T01:49:23.936Z,101975.81
2023-03-16T01:51:59.619Z,101983.44
2023-03-16T01:54:48.868Z,101975.56
2023-03-16T01:57:19.576Z,101972.56
2023-03-16T02:00:10.943Z,101967.47
2023-03-16T02:02:56.474Z,101964.75
2023-03-16T02:05:42.238Z,101964.59
2023-03-16T02:08:12.626Z,101964.81
2023-03-16T02:10:40.373Z,101961.13
2023-03-16T02:13:07.212Z,101956.09
2023-03-16T02:15:35.961Z,101955.41
2023-03-16T02:18:02.915Z,101956.22
2023-03-16T02:20:42.737Z,101949.94
2023-03-16T02:23:18.533Z,101947.22
2023-03-16T02:25:56.890Z,101940.88
2023-03-16T02:28:45.249Z,101947.75
2023-03-16T02:31:12.281Z,101945.31
2023-03-16T02:33:39.961Z,101942.22
2023-03-16T02:36:08.785Z,101938.59
2023-03-16T02:38:35.715Z,101946.38
2023-03-16T02:41:14.664Z,101941.78
2023-03-16T02:43:56.722Z,101939.38
2023-03-16T02:46:29.303Z,101940.22
2023-03-16T02:49:03.041Z,101947.28
2023-03-16T02:51:30.498Z,101949.38
2023-03-16T02:53:57.111Z,101946.41
2023-03-16T02:56:25.075Z,101949.72
2023-03-16T02:58:51.816Z,101949.66
2023-03-16T03:01:19.848Z,101953.06
2023-03-16T03:03:46.521Z,101951.22
2023-03-16T03:06:12.937Z,101957.34
2023-03-16T03:08:40.004Z,101958.09
2023-03-16T03:11:06.500Z,101956.47
2023-03-16T03:13:33.172Z,101959.13
2023-03-16T03:16:00.100Z,101966.31
2023-03-16T03:18:28.182Z,101955.28
2023-03-16T03:20:54.631Z,101955.03
2023-03-16T03:23:21.281Z,101962.03
2023-03-16T03:25:47.947Z,101959.44
2023-03-16T03:28:15.554Z,101950.78
2023-03-16T03:30:42.428Z,101956.84
2023-03-16T03:33:09.303Z,101960.69
2023-03-16T03:35:35.808Z,101953.03
2023-03-16T03:38:02.408Z,101952.00
2023-03-16T03:40:29.916Z,101946.03
2023-03-16T03:43:01.442Z,101943.53
2023-03-16T03:45:29.141Z,101945.16
2023-03-16T03:47:56.250Z,101944.16
2023-03-16T03:50:23.825Z,101943.16
2023-03-16T03:52:57.362Z,101943.66
2023-03-16T03:55:24.090Z,101947.16
2023-03-16T03:57:50.993Z,101943.84
2023-03-16T04:00:20.857Z,101948.38
2023-03-16T04:02:48.123Z,101948.25
2023-03-16T04:05:22.590Z,101942.94
2023-03-16T04:07:55.028Z,101947.06
2023-03-16T04:10:21.472Z,101947.50
2023-03-16T04:12:48.065Z,101932.59
2023-03-16T04:15:14.624Z,101936.13
2023-03-16T04:17:59.546Z,101935.25
2023-03-16T04:20:26.400Z,101937.84
2023-03-16T04:22:58.405Z,101930.31
2023-03-16T04:25:26.649Z,101935.69
2023-03-16T04:27:53.552Z,101930.22
2023-03-16T04:30:23.395Z,101931.88
2023-03-16T04:32:54.314Z,101930.22
2023-03-16T04:35:22.202Z,101931.19
2023-03-16T04:37:52.935Z,101930.59
2023-03-16T04:40:24.438Z,101928.59
2023-03-16T04:42:58.022Z,101928.88
2023-03-16T04:45:24.477Z,101935.03
2023-03-16T04:47:54.121Z,101934.28
2023-03-16T04:50:20.888Z,101933.19
2023-03-16T04:52:51.739Z,101924.56
2023-03-16T04:55:18.774Z,101927.09
2023-03-16T04:57:45.945Z,101919.06
2023-03-16T05:00:18.772Z,101915.03
2023-03-16T05:02:53.628Z,101908.25
2023-03-16T05:05:21.608Z,101908.91
2023-03-16T05:07:49.218Z,101912.31
2023-03-16T05:10:18.840Z,101907.81
2023-03-16T05:12:47.413Z,101913.28
2023-03-16T05:15:14.822Z,101913.75
2023-03-16T05:17:43.148Z,101913.75
2023-03-16T05:20:14.714Z,101916.22
2023-03-16T05:22:56.937Z,101919.00
2023-03-16T05:25:32.721Z,101908.59
2023-03-16T05:28:03.865Z,101909.34
2023-03-16T05:30:36.869Z,101911.78
2023-03-16T05:33:06.227Z,101918.75
2023-03-16T05:35:33.412Z,101922.13
2023-03-16T05:38:04.792Z,101929.88
2023-03-16T05:40:33.826Z,101932.63
2023-03-16T05:43:10.483Z,101920.34
2023-03-16T05:45:43.837Z,101924.44
2023-03-16T05:48:17.668Z,101925.25
2023-03-16T05:50:48.260Z,101925.75
2023-03-16T05:53:18.263Z,101920.25
2023-03-16T05:55:45.479Z,101919.25
2023-03-16T05:58:15.587Z,101918.28
2023-03-16T06:00:43.759Z,101920.69
2023-03-16T06:03:31.321Z,101925.63
2023-03-16T06:05:59.164Z,101929.94
2023-03-16T06:08:32.578Z,101924.44
2023-03-16T06:11:07.958Z,101927.84
2023-03-16T06:13:34.581Z,101928.66
2023-03-16T06:16:02.154Z,101929.91
2023-03-16T06:18:29.210Z,101924.38
2023-03-16T06:20:56.299Z,101928.38
2023-03-16T06:23:23.072Z,101931.50
2023-03-16T06:25:51.083Z,101932.31
2023-03-16T06:28:22.071Z,101937.41
2023-03-16T06:30:49.068Z,101928.84
2023-03-16T06:33:15.585Z,101938.31
2023-03-16T06:35:42.255Z,101939.09
2023-03-16T06:38:15.749Z,101943.09
2023-03-16T06:41:02.624Z,101949.19
2023-03-16T06:43:31.318Z,101950.78
2023-03-16T06:45:58.834Z,101948.25
2023-03-16T06:48:25.220Z,101945.44
2023-03-16T06:50:51.759Z,101952.53
2023-03-16T06:53:22.731Z,101949.66
2023-03-16T06:55:49.724Z,101950.34
2023-03-16T06:58:16.693Z,101953.06
2023-03-16T07:00:44.732Z,101953.75
2023-03-16T07:03:11.222Z,101948.41
2023-03-16T07:05:40.474Z,101953.31
2023-03-16T07:08:09.222Z,101959.94
2023-03-16T07:10:35.975Z,101965.75
2023-03-16T07:13:02.347Z,101957.69
2023-03-16T07:15:28.915Z,101970.59
2023-03-16T07:17:57.008Z,101959.03
2023-03-16T07:20:24.570Z,101959.75
2023-03-16T07:22:50.978Z,101963.91
2023-03-16T07:25:17.481Z,101965.91
2023-03-16T07:27:49.575Z,101972.53
2023-03-16T07:30:22.355Z,101969.03
2023-03-16T07:32:49.805Z,101974.19
2023-03-16T07:35:17.901Z,101964.44
2023-03-16T07:37:45.049Z,101973.69
2023-03-16T07:40:12.288Z,101979.06
2023-03-16T07:42:39.250Z,101976.28
2023-03-16T07:45:10.976Z,101974.19
2023-03-16T07:47:37.420Z,101987.59
2023-03-16T07:50:13.289Z,101977.13
2023-03-16T07:52:43.794Z,101980.91
2023-03-16T07:55:11.773Z,101971.22
2023-03-16T07:57:39.765Z,101972.25
2023-03-16T08:00:07.803Z,101967.09
2023-03-16T08:02:39.726Z,101973.91
2023-03-16T08:05:12.817Z,101979.84
2023-03-16T08:07:43.226Z,101975.44
2023-03-16T08:10:13.632Z,101982.47
2023-03-16T08:12:49.585Z,101977.94
2023-03-16T08:15:16.241Z,101976.75
2023-03-16T08:17:43.847Z,101965.72
2023-03-16T08:20:15.490Z,101968.59
2023-03-16T08:22:46.134Z,101972.03
2023-03-16T08:25:15.623Z,101966.88
2023-03-16T08:27:53.030Z,101958.69
2023-03-16T08:30:19.685Z,101960.84
2023-03-16T08:32:54.470Z,101968.06
2023-03-16T08:35:21.144Z,101969.34
2023-03-16T08:37:49.470Z,101961.88
2023-03-16T08:40:19.450Z,101960.09
2023-03-16T08:42:50.039Z,101953.91
2023-03-16T08:45:17.390Z,101956.25
2023-03-16T08:47:44.373Z,101963.75
2023-03-16T08:50:15.747Z,101955.13
2023-03-16T08:52:42.810Z,101954.94
2023-03-16T08:55:10.963Z,101957.25
2023-03-16T08:57:39.177Z,101951.25
2023-03-16T09:00:12.887Z,101953.66
2023-03-16T09:02:40.649Z,101951.25
2023-03-16T09:05:12.009Z,101949.34
2023-03-16T09:07:39.475Z,101954.66
2023-03-16T09:10:07.177Z,101946.25
2023-03-16T09:12:37.824Z,101948.81
2023-03-16T09:15:05.910Z,101944.09
2023-03-16T09:17:33.307Z,101942.81
2023-03-16T09:20:11.526Z,101941.66
2023-03-16T09:22:46.857Z,101937.78
2023-03-16T09:25:14.424Z,101939.94
2023-03-16T09:27:40.861Z,101942.16
2023-03-16T09:30:09.195Z,101929.34
2023-03-16T09:32:37.258Z,101934.59
2023-03-16T09:35:05.713Z,101931.56
2023-03-16T09:37:44.572Z,101928.94
2023-03-16T09:40:25.297Z,101932.47
2023-03-16T09:42:57.844Z,101923.03
2023-03-16T09:45:40.287Z,101922.31
2023-03-16T09:48:10.446Z,101915.69
2023-03-16T09:50:48.648Z,101924.09
2023-03-16T09:53:31.649Z,101920.41
2023-03-16T09:56:03.273Z,101919.16
2023-03-16T09:58:32.102Z,101918.00
2023-03-16T10:01:26.669Z,101915.09
2023-03-16T10:04:14.376Z,101907.50
2023-03-16T10:06:54.448Z,101908.47
2023-03-16T10:09:38.420Z,101902.75
2023-03-16T10:12:08.636Z,101899.50
2023-03-16T10:14:48.074Z,101912.88
2023-03-16T10:17:19.059Z,101900.97
2023-03-16T10:20:00.017Z,101900.34
2023-03-16T10:22:35.591Z,101910.53
2023-03-16T10:25:22.188Z,101907.25
2023-03-16T10:27:49.261Z,101905.28
2023-03-16T10:30:19.718Z,101900.50
2023-03-16T10:32:47.067Z,101893.56
2023-03-16T10:35:29.186Z,101893.91
2023-03-16T10:37:57.115Z,101900.22
2023-03-16T10:40:23.860Z,101886.03
2023-03-16T10:42:50.445Z,101889.25
2023-03-16T10:45:29.952Z,101881.66
2023-03-16T10:48:07.740Z,101878.69
2023-03-16T10:50:34.404Z,101880.28
2023-03-16T10:53:02.678Z,101880.97
2023-03-16T10:55:34.745Z,101877.53
2023-03-16T10:58:01.348Z,101871.19
2023-03-16T11:00:34.518Z,101871.00
2023-03-16T11:03:01.248Z,101873.94
2023-03-16T11:05:33.008Z,101865.00
2023-03-16T11:08:09.559Z,101848.03
2023-03-16T11:10:56.277Z,101857.63
2023-03-16T11:13:26.199Z,101849.25
2023-03-16T11:16:01.610Z,101846.00
2023-03-16T11:18:32.292Z,101850.00
2023-03-16T11:21:06.628Z,101845.44
2023-03-16T11:23:36.891Z,101837.38
2023-03-16T11:26:14.143Z,101847.47
2023-03-16T11:28:45.781Z,101846.41
2023-03-16T11:31:42.838Z,101840.69
2023-03-16T11:34:15.883Z,101829.69
2023-03-16T11:36:59.263Z,101822.44
2023-03-16T11:39:52.693Z,101831.19
2023-03-16T11:42:30.593Z,101822.94
2023-03-16T11:45:17.287Z,101827.31
2023-03-16T11:47:49.773Z,101822.16
2023-03-16T11:50:45.700Z,101801.56
2023-03-16T11:53:36.086Z,101799.34
2023-03-16T11:56:21.981Z,101792.84
2023-03-16T11:59:18.614Z,101796.28
2023-03-16T12:02:05.128Z,101788.41
2023-03-16T12:05:19.244Z,101783.06
2023-03-16T12:08:18.951Z,101784.41
2023-03-16T12:10:51.997Z,101783.38
2023-03-16T12:13:33.613Z,101783.13
2023-03-16T12:16:11.643Z,101791.13
2023-03-16T12:18:47.784Z,101780.16
2023-03-16T12:21:20.164Z,101782.94
2023-03-16T12:23:53.318Z,101762.88
2023-03-16T12:26:23.380Z,101748.53
2023-03-16T12:28:51.909Z,101768.25
2023-03-16T12:31:45.847Z,101754.25
2023-03-16T12:34:25.638Z,101751.94
2023-03-16T12:37:25.186Z,101734.34
2023-03-16T12:39:51.604Z,101733.66
2023-03-16T12:42:42.356Z,101728.94
2023-03-16T12:45:17.965Z,101723.50
2023-03-16T12:47:50.464Z,101722.09
2023-03-16T12:50:20.761Z,101720.56
2023-03-16T12:52:50.657Z,101723.63
2023-03-16T12:55:25.049Z,101721.06
2023-03-16T12:58:00.228Z,101717.34
2023-03-16T13:00:40.767Z,101707.41
2023-03-16T13:03:15.391Z,101703.31
2023-03-16T13:05:55.363Z,101714.25
2023-03-16T13:08:23.290Z,101697.41
2023-03-16T13:11:06.489Z,101694.66
2023-03-16T13:13:34.105Z,101692.44
2023-03-16T13:16:09.415Z,101692.59
2023-03-16T13:18:40.124Z,101683.81
2023-03-16T13:21:37.730Z,101683.22
2023-03-16T13:24:30.881Z,101675.53
2023-03-16T13:27:15.560Z,101677.94
2023-03-16T13:29:53.146Z,101685.06
2023-03-16T13:32:21.389Z,101675.59
2023-03-16T13:34:50.749Z,101678.25
2023-03-16T13:37:20.414Z,101674.13
2023-03-16T13:39:55.269Z,101676.34
2023-03-16T13:42:23.969Z,101670.53
2023-03-16T13:44:56.653Z,101667.19
2023-03-16T13:47:26.430Z,101677.00
2023-03-16T13:49:58.826Z,101676.22
2023-03-16T13:52:31.280Z,101669.97
2023-03-16T13:54:59.383Z,101654.16
2023-03-16T13:57:29.404Z,101664.09
2023-03-16T14:00:20.375Z,101657.63
2023-03-16T14:02:52.523Z,101656.84
2023-03-16T14:05:24.548Z,101654.22
2023-03-16T14:07:51.329Z,101657.81
2023-03-16T14:10:18.653Z,101658.88
2023-03-16T14:12:56.896Z,101652.44
2023-03-16T14:15:26.651Z,101646.41
2023-03-16T14:17:53.696Z,101640.88
2023-03-16T14:20:23.208Z,101636.16
2023-03-16T14:22:53.643Z,101632.78
2023-03-16T14:25:25.488Z,101626.03
2023-03-16T14:28:01.527Z,101610.59
2023-03-16T14:30:30.363Z,101612.31
2023-03-16T14:33:05.545Z,101611.66
2023-03-16T14:35:41.376Z,101606.41
2023-03-16T14:38:36.020Z,101608.09
2023-03-16T14:41:15.275Z,101598.16
2023-03-16T14:43:47.842Z,101589.28
2023-03-16T14:46:20.361Z,101584.25
2023-03-16T14:48:46.814Z,101591.28
2023-03-16T14:51:14.625Z,101595.09
2023-03-16T14:53:41.134Z,101576.56
2023-03-16T14:56:13.582Z,101564.41
2023-03-16T14:58:41.193Z,101563.09
2023-03-16T15:01:17.838Z,101561.22
2023-03-16T15:03:45.345Z,101567.03
2023-03-16T15:06:11.863Z,101562.03
2023-03-16T15:08:44.263Z,101551.78
2023-03-16T15:11:11.267Z,101556.31
2023-03-16T15:13:40.566Z,101542.59
2023-03-16T15:16:11.433Z,101544.78
2023-03-16T15:18:39.775Z,101550.41
2023-03-16T15:21:21.007Z,101542.31
2023-03-16T15:23:48.196Z,101538.69
2023-03-16T15:26:19.040Z,101540.63
2023-03-16T15:28:45.454Z,101534.53
2023-03-16T15:31:14.058Z,101541.00
2023-03-16T15:33:41.425Z,101529.38
2023-03-16T15:36:19.873Z,101524.34
2023-03-16T15:38:51.485Z,101528.44
2023-03-16T15:41:18.123Z,101534.56
2023-03-16T15:43:45.702Z,101529.88
2023-03-16T15:46:12.277Z,101523.31
2023-03-16T15:48:39.244Z,101532.81
2023-03-16T15:51:19.513Z,101528.03
2023-03-16T15:53:50.847Z,101522.16
2023-03-16T15:56:23.759Z,101519.63
2023-03-16T15:58:50.736Z,101513.03
2023-03-16T16:01:22.073Z,101508.13
2023-03-16T16:03:51.763Z,101506.72
2023-03-16T16:06:18.574Z,101505.03
2023-03-16T16:08:45.302Z,101504.22
2023-03-16T16:11:23.711Z,101515.63
2023-03-16T16:13:51.462Z,101509.38
2023-03-16T16:16:19.840Z,101514.63
2023-03-16T16:18:48.242Z,101511.78
2023-03-16T16:21:23.222Z,101515.53
2023-03-16T16:23:52.090Z,101516.25
2023-03-16T16:26:52.183Z,101513.72
2023-03-16T16:29:23.886Z,101492.78
2023-03-16T16:31:53.690Z,101497.22
2023-03-16T16:34:24.116Z,101499.13
2023-03-16T16:36:51.304Z,101500.69
2023-03-16T16:39:17.771Z,101497.69
2023-03-16T16:41:44.806Z,101491.13
2023-03-16T16:44:23.418Z,101494.63
2023-03-16T16:46:51.047Z,101486.00
2023-03-16T16:49:28.418Z,101481.44
2023-03-16T16:51:55.525Z,101478.81
2023-03-16T16:54:29.010Z,101481.56
2023-03-16T16:56:57.474Z,101470.44
2023-03-16T16:59:28.357Z,101469.41
2023-03-16T17:01:56.615Z,101470.47
2023-03-16T17:04:28.528Z,101464.00
2023-03-16T17:06:59.025Z,101462.69
2023-03-16T17:09:27.678Z,101467.84
2023-03-16T17:11:58.735Z,101467.59
2023-03-16T17:14:28.065Z,101479.09
2023-03-16T17:16:55.301Z,101474.53
2023-03-16T17:19:24.784Z,101473.09
2023-03-16T17:21:52.736Z,101479.56
2023-03-16T17:24:19.206Z,101484.34
2023-03-16T17:26:49.301Z,101485.44
2023-03-16T17:29:18.689Z,101480.41
2023-03-16T17:31:45.144Z,101484.81
2023-03-16T17:34:18.406Z,101493.44
2023-03-16T17:36:46.233Z,101488.19
2023-03-16T17:39:21.118Z,101486.38
2023-03-16T17:42:01.825Z,101471.78
2023-03-16T17:44:34.627Z,101468.91
2023-03-16T17:47:01.568Z,101470.59
2023-03-16T17:49:28.592Z,101474.41
2023-03-16T17:51:55.978Z,101470.22
2023-03-16T17:54:23.144Z,101471.19
2023-03-16T17:56:51.602Z,101459.44
2023-03-16T17:59:21.021Z,101454.69
2023-03-16T18:01:48.297Z,101453.94
2023-03-16T18:04:20.991Z,101436.72
2023-03-16T18:06:48.071Z,101451.66
2023-03-16T18:09:16.013Z,101442.56
2023-03-16T18:11:47.434Z,101447.00
2023-03-16T18:14:24.540Z,101436.72
2023-03-16T18:16:51.378Z,101438.03
2023-03-16T18:19:24.423Z,101437.69
2023-03-16T18:21:53.665Z,101437.31
2023-03-16T18:24:22.068Z,101446.25
2023-03-16T18:26:48.701Z,101444.59
2023-03-16T18:29:15.157Z,101450.41
2023-03-16T18:31:42.380Z,101441.47
2023-03-16T18:34:21.003Z,101434.31
2023-03-16T18:36:47.545Z,101429.78
2023-03-16T18:39:22.084Z,101426.09
2023-03-16T18:41:48.567Z,101421.19
2023-03-16T18:44:20.668Z,101434.31
2023-03-16T18:46:48.742Z,101431.44
2023-03-16T18:49:26.484Z,101426.53
2023-03-16T18:51:54.543Z,101433.81
2023-03-16T18:54:35.293Z,101430.22
2023-03-16T18:57:04.345Z,101427.81
2023-03-16T18:59:31.837Z,101419.94
2023-03-16T19:01:58.522Z,101415.16
2023-03-16T19:04:29.128Z,101405.25
2023-03-16T19:06:56.743Z,101409.28
2023-03-16T19:09:27.704Z,101399.63
2023-03-16T19:11:54.653Z,101396.38
2023-03-16T19:14:31.124Z,101401.97
2023-03-16T19:16:57.695Z,101401.28
2023-03-16T19:19:24.712Z,101404.50
2023-03-16T19:22:15.761Z,101408.94
2023-03-16T19:24:52.460Z,101410.97
2023-03-16T19:27:22.817Z,101402.25
2023-03-16T19:29:52.122Z,101401.28
2023-03-16T19:32:20.852Z,101394.25
2023-03-16T19:34:48.025Z,101395.91
2023-03-16T19:37:15.629Z,101389.34
2023-03-16T19:39:43.580Z,101384.53
2023-03-16T19:42:21.278Z,101384.53
2023-03-16T19:44:49.826Z,101380.94
2023-03-16T19:47:30.832Z,101375.44
2023-03-16T19:49:58.832Z,101367.56
2023-03-16T19:52:28.101Z,101372.56
2023-03-16T19:54:54.656Z,101370.91
2023-03-16T19:57:21.414Z,101371.72
2023-03-16T19:59:50.187Z,101375.44
2023-03-16T20:02:36.992Z,101372.09
2023-03-16T20:05:04.321Z,101366.03
2023-03-16T20:07:31.232Z,101368.06
2023-03-16T20:09:57.654Z,101370.41
2023-03-16T20:12:27.003Z,101363.72
2023-03-16T20:14:55.987Z,101365.75
2023-03-16T20:17:26.104Z,101357.28
2023-03-16T20:19:53.006Z,101358.47
2023-03-16T20:22:24.837Z,101361.59
2023-03-16T20:24:52.971Z,101358.34
2023-03-16T20:27:21.849Z,101363.97
2023-03-16T20:29:49.141Z,101361.81
2023-03-16T20:32:31.400Z,101355.59
2023-03-16T20:34:58.116Z,101347.22
2023-03-16T20:37:27.971Z,101347.22
2023-03-16T20:39:56.454Z,101339.09
2023-03-16T20:42:30.285Z,101332.50
2023-03-16T20:44:57.612Z,101333.00
2023-03-16T20:47:25.244Z,101325.72
2023-03-16T20:49:52.737Z,101326.63
2023-03-16T20:52:22.026Z,101338.94
2023-03-16T20:54:49.957Z,101322.56
2023-03-16T20:57:21.083Z,101326.16
2023-03-16T20:59:49.270Z,101303.72
2023-03-16T21:02:27.278Z,101313.25
2023-03-16T21:04:58.704Z,101300.56
2023-03-16T21:07:25.573Z,101295.22
2023-03-16T21:09:52.148Z,101298.31
2023-03-16T21:12:24.544Z,101295.59
2023-03-16T21:14:51.781Z,101296.81
2023-03-16T21:17:26.635Z,101295.00
2023-03-16T21:19:53.398Z,101293.00
2023-03-16T21:22:36.605Z,101280.22
2023-03-16T21:25:03.123Z,101280.81
2023-03-16T21:27:34.546Z,101282.84
2023-03-16T21:30:26.092Z,101272.91
2023-03-16T21:32:53.895Z,101272.47
2023-03-16T21:35:22.807Z,101269.28
2023-03-16T21:37:49.410Z,101266.97
2023-03-16T21:40:21.555Z,101275.94
2023-03-16T21:42:48.302Z,101263.50
2023-03-16T21:45:15.806Z,101278.91
2023-03-16T21:47:43.344Z,101269.13
2023-03-16T21:50:20.317Z,101274.84
2023-03-16T21:52:47.273Z,101274.13
2023-03-16T21:55:23.819Z,101265.28
2023-03-16T21:57:51.157Z,101257.41
2023-03-16T22:00:23.234Z,101256.22
2023-03-16T22:02:53.121Z,101255.50
2023-03-16T22:05:40.148Z,101261.13
2023-03-16T22:08:22.278Z,101256.56
2023-03-16T22:10:49.570Z,101263.69
2023-03-16T22:13:16.327Z,101266.84
2023-03-16T22:15:43.610Z,101261.22
2023-03-16T22:18:29.697Z,101249.81
2023-03-16T22:20:57.492Z,101255.97
2023-03-16T22:23:34.308Z,101249.66
2023-03-16T22:26:02.479Z,101243.66
2023-03-16T22:28:29.926Z,101253.84
2023-03-16T22:30:58.263Z,101242.50
2023-03-16T22:33:31.626Z,101243.13
2023-03-16T22:36:11.426Z,101238.69
2023-03-16T22:38:40.051Z,101241.19
2023-03-16T22:41:07.601Z,101237.50
2023-03-16T22:43:36.949Z,101239.53
2023-03-16T22:46:04.059Z,101233.44
2023-03-16T22:48:31.865Z,101233.81
2023-03-16T22:51:03.855Z,101228.53
2023-03-16T22:53:41.350Z,101218.38
2023-03-16T22:56:10.231Z,101214.94
2023-03-16T22:58:40.649Z,101207.28
2023-03-16T23:01:17.756Z,101208.00
2023-03-16T23:03:45.785Z,101203.69
2023-03-16T23:06:17.404Z,101191.66
2023-03-16T23:08:44.253Z,101192.25
2023-03-16T23:11:29.870Z,101191.41
2023-03-16T23:13:56.866Z,101186.91
2023-03-16T23:16:41.926Z,101183.16
2023-03-16T23:19:33.853Z,101184.25
2023-03-16T23:22:03.424Z,101190.81
2023-03-16T23:24:30.298Z,101191.38
2023-03-16T23:26:57.659Z,101177.94
2023-03-16T23:29:24.483Z,101182.47
2023-03-16T23:31:51.258Z,101186.25
2023-03-16T23:34:20.614Z,101184.56
2023-03-16T23:36:47.290Z,101182.91
2023-03-16T23:39:13.817Z,101178.50
2023-03-16T23:41:44.258Z,101171.56
2023-03-16T23:44:23.403Z,101166.97
2023-03-16T23:46:50.829Z,101170.03
2023-03-16T23:49:24.037Z,101171.94
2023-03-16T23:51:51.070Z,101166.19
2023-03-16T23:54:23.410Z,101152.00
2023-03-16T23:56:50.607Z,101160.72
2023-03-16T23:59:17.743Z,101162.59
